sensor_id;sensor_type;location;lat;lon;timestamp;pressure;altitude;pressure_sealevel;temperature;humidity
76137;BME280;68622;53.128;17.966;2023-11-22T00:00:55;102233.31;;;-1.26;63.20
76137;BME280;68622;53.128;17.966;2023-11-22T00:03:33;102238.95;;;-1.28;63.59
76137;BME280;68622;53.128;17.966;2023-11-22T00:05:59;102239.64;;;-1.28;63.45
76137;BME280;68622;53.128;17.966;2023-11-22T00:08:27;102236.41;;;-1.29;63.39
76137;BME280;68622;53.128;17.966;2023-11-22T00:10:53;102224.68;;;-1.30;63.37
76137;BME280;68622;53.128;17.966;2023-11-22T00:13:18;102219.25;;;-1.32;63.28
76137;BME280;68622;53.128;17.966;2023-11-22T00:15:44;102224.08;;;-1.35;63.23
76137;BME280;68622;53.128;17.966;2023-11-22T00:18:10;102224.63;;;-1.38;63.42
76137;BME280;68622;53.128;17.966;2023-11-22T00:20:36;102223.31;;;-1.41;63.35
76137;BME280;68622;53.128;17.966;2023-11-22T00:23:02;102230.30;;;-1.42;63.40
76137;BME280;68622;53.128;17.966;2023-11-22T00:25:31;102237.15;;;-1.44;63.65
76137;BME280;68622;53.128;17.966;2023-11-22T00:27:58;102239.37;;;-1.45;64.01
76137;BME280;68622;53.128;17.966;2023-11-22T00:30:24;102244.66;;;-1.47;64.00
76137;BME280;68622;53.128;17.966;2023-11-22T00:32:51;102237.77;;;-1.51;63.94
76137;BME280;68622;53.128;17.966;2023-11-22T00:35:17;102241.19;;;-1.53;64.17
76137;BME280;68622;53.128;17.966;2023-11-22T00:37:43;102252.95;;;-1.56;64.36
76137;BME280;68622;53.128;17.966;2023-11-22T00:40:09;102252.17;;;-1.61;64.08
76137;BME280;68622;53.128;17.966;2023-11-22T00:42:39;102253.31;;;-1.70;64.49
76137;BME280;68622;53.128;17.966;2023-11-22T00:45:08;102257.42;;;-1.72;64.75
76137;BME280;68622;53.128;17.966;2023-11-22T00:47:36;102254.91;;;-1.76;64.58
76137;BME280;68622;53.128;17.966;2023-11-22T00:50:03;102259.02;;;-1.78;64.99
76137;BME280;68622;53.128;17.966;2023-11-22T00:52:31;102263.30;;;-1.80;64.90
76137;BME280;68622;53.128;17.966;2023-11-22T00:54:57;102267.08;;;-1.83;65.16
76137;BME280;68622;53.128;17.966;2023-11-22T00:57:23;102275.30;;;-1.87;65.58
76137;BME280;68622;53.128;17.966;2023-11-22T00:59:49;102280.25;;;-1.91;65.65
76137;BME280;68622;53.128;17.966;2023-11-22T01:02:16;102286.09;;;-1.94;65.83
76137;BME280;68622;53.128;17.966;2023-11-22T01:04:42;102284.94;;;-1.98;66.08
76137;BME280;68622;53.128;17.966;2023-11-22T01:07:08;102286.35;;;-2.02;66.00
76137;BME280;68622;53.128;17.966;2023-11-22T01:09:34;102292.84;;;-2.06;66.14
76137;BME280;68622;53.128;17.966;2023-11-22T01:12:00;102298.98;;;-2.08;65.83
76137;BME280;68622;53.128;17.966;2023-11-22T01:14:27;102304.59;;;-2.08;65.87
76137;BME280;68622;53.128;17.966;2023-11-22T01:16:53;102316.30;;;-2.07;65.79
76137;BME280;68622;53.128;17.966;2023-11-22T01:19:20;102309.69;;;-2.08;65.94
76137;BME280;68622;53.128;17.966;2023-11-22T01:21:47;102300.83;;;-2.06;65.85
76137;BME280;68622;53.128;17.966;2023-11-22T01:24:13;102301.34;;;-2.05;65.65
76137;BME280;68622;53.128;17.966;2023-11-22T01:26:39;102303.38;;;-2.06;65.82
76137;BME280;68622;53.128;17.966;2023-11-22T01:29:05;102297.95;;;-2.07;65.74
76137;BME280;68622;53.128;17.966;2023-11-22T01:31:31;102300.16;;;-2.07;65.95
76137;BME280;68622;53.128;17.966;2023-11-22T01:33:59;102314.50;;;-2.12;66.31
76137;BME280;68622;53.128;17.966;2023-11-22T01:36:26;102306.92;;;-2.18;66.24
76137;BME280;68622;53.128;17.966;2023-11-22T01:38:53;102292.33;;;-2.21;66.20
76137;BME280;68622;53.128;17.966;2023-11-22T01:41:20;102291.63;;;-2.19;66.06
76137;BME280;68622;53.128;17.966;2023-11-22T01:43:47;102296.91;;;-2.21;66.20
76137;BME280;68622;53.128;17.966;2023-11-22T01:46:23;102301.52;;;-2.24;66.57
76137;BME280;68622;53.128;17.966;2023-11-22T01:48:52;102308.02;;;-2.28;66.39
76137;BME280;68622;53.128;17.966;2023-11-22T01:51:20;102309.59;;;-2.33;66.68
76137;BME280;68622;53.128;17.966;2023-11-22T01:53:48;102312.53;;;-2.38;66.97
76137;BME280;68622;53.128;17.966;2023-11-22T01:56:16;102318.52;;;-2.42;67.27
76137;BME280;68622;53.128;17.966;2023-11-22T01:58:43;102324.84;;;-2.45;66.95
76137;BME280;68622;53.128;17.966;2023-11-22T02:01:10;102331.30;;;-2.48;67.13
76137;BME280;68622;53.128;17.966;2023-11-22T02:03:38;102330.80;;;-2.48;66.76
76137;BME280;68622;53.128;17.966;2023-11-22T02:06:06;102333.69;;;-2.48;66.87
76137;BME280;68622;53.128;17.966;2023-11-22T02:08:32;102343.08;;;-2.53;67.08
76137;BME280;68622;53.128;17.966;2023-11-22T02:10:58;102342.25;;;-2.56;67.19
76137;BME280;68622;53.128;17.966;2023-11-22T02:13:24;102340.04;;;-2.56;66.98
76137;BME280;68622;53.128;17.966;2023-11-22T02:15:50;102348.36;;;-2.55;67.08
76137;BME280;68622;53.128;17.966;2023-11-22T02:18:18;102348.86;;;-2.56;67.09
76137;BME280;68622;53.128;17.966;2023-11-22T02:20:44;102350.09;;;-2.59;67.24
76137;BME280;68622;53.128;17.966;2023-11-22T02:23:10;102352.48;;;-2.61;66.84
76137;BME280;68622;53.128;17.966;2023-11-22T02:25:37;102351.64;;;-2.62;67.22
76137;BME280;68622;53.128;17.966;2023-11-22T02:28:03;102354.02;;;-2.63;67.18
76137;BME280;68622;53.128;17.966;2023-11-22T02:30:30;102356.58;;;-2.65;67.47
76137;BME280;68622;53.128;17.966;2023-11-22T02:32:57;102359.67;;;-2.69;67.47
76137;BME280;68622;53.128;17.966;2023-11-22T02:35:23;102362.23;;;-2.71;67.77
76137;BME280;68622;53.128;17.966;2023-11-22T02:37:49;102370.23;;;-2.74;68.07
76137;BME280;68622;53.128;17.966;2023-11-22T02:40:20;102374.35;;;-2.79;68.18
76137;BME280;68622;53.128;17.966;2023-11-22T02:42:47;102373.33;;;-2.81;68.23
76137;BME280;68622;53.128;17.966;2023-11-22T02:45:15;102370.61;;;-2.80;67.81
76137;BME280;68622;53.128;17.966;2023-11-22T02:47:42;102376.37;;;-2.77;67.90
76137;BME280;68622;53.128;17.966;2023-11-22T02:50:14;102375.15;;;-2.75;68.13
76137;BME280;68622;53.128;17.966;2023-11-22T02:52:41;102384.83;;;-2.71;68.28
76137;BME280;68622;53.128;17.966;2023-11-22T02:55:08;102388.72;;;-2.69;68.55
76137;BME280;68622;53.128;17.966;2023-11-22T02:57:37;102397.90;;;-2.70;68.34
76137;BME280;68622;53.128;17.966;2023-11-22T03:00:06;102402.66;;;-2.71;68.23
76137;BME280;68622;53.128;17.966;2023-11-22T03:02:34;102406.73;;;-2.71;68.57
76137;BME280;68622;53.128;17.966;2023-11-22T03:05:01;102420.98;;;-2.70;68.80
76137;BME280;68622;53.128;17.966;2023-11-22T03:07:27;102406.85;;;-2.63;68.68
76137;BME280;68622;53.128;17.966;2023-11-22T03:09:53;102400.16;;;-2.54;68.49
76137;BME280;68622;53.128;17.966;2023-11-22T03:12:20;102411.63;;;-2.44;68.68
76137;BME280;68622;53.128;17.966;2023-11-22T03:14:47;102410.92;;;-2.40;68.85
76137;BME280;68622;53.128;17.966;2023-11-22T03:17:14;102406.13;;;-2.33;68.66
76137;BME280;68622;53.128;17.966;2023-11-22T03:19:40;102401.31;;;-2.26;68.70
76137;BME280;68622;53.128;17.966;2023-11-22T03:22:07;102396.86;;;-2.23;68.50
76137;BME280;68622;53.128;17.966;2023-11-22T03:24:33;102406.37;;;-2.21;68.50
76137;BME280;68622;53.128;17.966;2023-11-22T03:27:01;102405.52;;;-2.21;68.14
76137;BME280;68622;53.128;17.966;2023-11-22T03:29:27;102402.80;;;-2.22;68.43
76137;BME280;68622;53.128;17.966;2023-11-22T03:31:54;102408.92;;;-2.22;68.04
76137;BME280;68622;53.128;17.966;2023-11-22T03:34:20;102400.06;;;-2.19;68.13
76137;BME280;68622;53.128;17.966;2023-11-22T03:36:47;102384.05;;;-2.16;68.17
76137;BME280;68622;53.128;17.966;2023-11-22T03:39:15;102398.86;;;-2.17;68.54
76137;BME280;68622;53.128;17.966;2023-11-22T03:41:42;102400.41;;;-2.19;68.45
76137;BME280;68622;53.128;17.966;2023-11-22T03:44:08;102393.42;;;-2.18;68.48
76137;BME280;68622;53.128;17.966;2023-11-22T03:46:38;102395.14;;;-2.18;68.48
76137;BME280;68622;53.128;17.966;2023-11-22T03:49:07;102409.25;;;-2.19;68.52
76137;BME280;68622;53.128;17.966;2023-11-22T03:51:35;102405.69;;;-2.20;68.30
76137;BME280;68622;53.128;17.966;2023-11-22T03:54:02;102410.79;;;-2.22;68.63
76137;BME280;68622;53.128;17.966;2023-11-22T03:56:29;102420.66;;;-2.25;67.91
76137;BME280;68622;53.128;17.966;2023-11-22T03:58:55;102410.70;;;-2.33;68.21
76137;BME280;68622;53.128;17.966;2023-11-22T04:01:21;102404.29;;;-2.37;68.00
76137;BME280;68622;53.128;17.966;2023-11-22T04:03:48;102416.20;;;-2.40;68.05
76137;BME280;68622;53.128;17.966;2023-11-22T04:06:15;102423.04;;;-2.47;67.83
76137;BME280;68622;53.128;17.966;2023-11-22T04:08:43;102417.66;;;-2.54;67.72
76137;BME280;68622;53.128;17.966;2023-11-22T04:11:13;102423.11;;;-2.58;68.11
76137;BME280;68622;53.128;17.966;2023-11-22T04:13:39;102432.64;;;-2.60;67.90
76137;BME280;68622;53.128;17.966;2023-11-22T04:16:06;102450.00;;;-2.66;68.22
76137;BME280;68622;53.128;17.966;2023-11-22T04:18:40;102460.41;;;-2.75;68.38
76137;BME280;68622;53.128;17.966;2023-11-22T04:21:07;102456.20;;;-2.81;68.20
76137;BME280;68622;53.128;17.966;2023-11-22T04:23:34;102453.33;;;-2.84;68.64
76137;BME280;68622;53.128;17.966;2023-11-22T04:26:02;102460.48;;;-2.87;68.47
76137;BME280;68622;53.128;17.966;2023-11-22T04:28:28;102472.53;;;-2.90;68.88
76137;BME280;68622;53.128;17.966;2023-11-22T04:30:57;102472.20;;;-2.89;69.03
76137;BME280;68622;53.128;17.966;2023-11-22T04:33:23;102475.08;;;-2.88;69.25
76137;BME280;68622;53.128;17.966;2023-11-22T04:35:50;102469.30;;;-2.88;69.43
76137;BME280;68622;53.128;17.966;2023-11-22T04:38:16;102474.40;;;-2.88;69.38
76137;BME280;68622;53.128;17.966;2023-11-22T04:40:44;102469.80;;;-2.86;69.60
76137;BME280;68622;53.128;17.966;2023-11-22T04:43:10;102467.74;;;-2.82;69.57
76137;BME280;68622;53.128;17.966;2023-11-22T04:45:37;102477.58;;;-2.78;69.52
76137;BME280;68622;53.128;17.966;2023-11-22T04:48:06;102478.23;;;-2.75;69.17
76137;BME280;68622;53.128;17.966;2023-11-22T04:50:36;102483.48;;;-2.71;69.41
76137;BME280;68622;53.128;17.966;2023-11-22T04:53:02;102486.55;;;-2.70;69.53
76137;BME280;68622;53.128;17.966;2023-11-22T04:55:27;102489.94;;;-2.68;69.34
76137;BME280;68622;53.128;17.966;2023-11-22T04:57:54;102493.48;;;-2.65;69.38
76137;BME280;68622;53.128;17.966;2023-11-22T05:00:21;102498.56;;;-2.63;69.33
76137;BME280;68622;53.128;17.966;2023-11-22T05:02:48;102498.73;;;-2.62;69.18
76137;BME280;68622;53.128;17.966;2023-11-22T05:05:15;102501.10;;;-2.59;68.76
76137;BME280;68622;53.128;17.966;2023-11-22T05:07:40;102504.64;;;-2.57;68.78
76137;BME280;68622;53.128;17.966;2023-11-22T05:10:07;102508.72;;;-2.55;68.88
76137;BME280;68622;53.128;17.966;2023-11-22T05:12:34;102516.68;;;-2.51;68.90
76137;BME280;68622;53.128;17.966;2023-11-22T05:15:01;102516.15;;;-2.48;68.98
76137;BME280;68622;53.128;17.966;2023-11-22T05:17:28;102515.46;;;-2.44;68.82
76137;BME280;68622;53.128;17.966;2023-11-22T05:19:54;102524.80;;;-2.43;69.10
76137;BME280;68622;53.128;17.966;2023-11-22T05:22:20;102525.79;;;-2.40;68.76
76137;BME280;68622;53.128;17.966;2023-11-22T05:24:46;102529.16;;;-2.35;68.85
76137;BME280;68622;53.128;17.966;2023-11-22T05:27:12;102534.58;;;-2.31;69.05
76137;BME280;68622;53.128;17.966;2023-11-22T05:29:38;102534.74;;;-2.29;68.87
76137;BME280;68622;53.128;17.966;2023-11-22T05:32:04;102534.06;;;-2.27;69.34
76137;BME280;68622;53.128;17.966;2023-11-22T05:34:30;102535.40;;;-2.26;68.86
76137;BME280;68622;53.128;17.966;2023-11-22T05:36:56;102537.13;;;-2.30;69.05
76137;BME280;68622;53.128;17.966;2023-11-22T05:39:22;102539.36;;;-2.35;68.91
76137;BME280;68622;53.128;17.966;2023-11-22T05:41:48;102539.55;;;-2.39;68.92
76137;BME280;68622;53.128;17.966;2023-11-22T05:44:14;102538.88;;;-2.42;68.89
76137;BME280;68622;53.128;17.966;2023-11-22T05:46:40;102538.88;;;-2.40;68.74
76137;BME280;68622;53.128;17.966;2023-11-22T05:49:07;102537.17;;;-2.41;68.78
76137;BME280;68622;53.128;17.966;2023-11-22T05:51:39;102538.20;;;-2.40;68.88
76137;BME280;68622;53.128;17.966;2023-11-22T05:54:06;102539.21;;;-2.39;68.81
76137;BME280;68622;53.128;17.966;2023-11-22T05:56:32;102533.95;;;-2.39;68.96
76137;BME280;68622;53.128;17.966;2023-11-22T05:58:58;102535.64;;;-2.36;69.01
76137;BME280;68622;53.128;17.966;2023-11-22T06:01:25;102542.75;;;-2.34;69.17
76137;BME280;68622;53.128;17.966;2023-11-22T06:03:53;102548.69;;;-2.31;69.30
76137;BME280;68622;53.128;17.966;2023-11-22T06:06:19;102548.48;;;-2.25;68.80
76137;BME280;68622;53.128;17.966;2023-11-22T06:08:47;102538.75;;;-2.18;68.98
76137;BME280;68622;53.128;17.966;2023-11-22T06:11:14;102528.66;;;-2.09;68.91
76137;BME280;68622;53.128;17.966;2023-11-22T06:13:41;102530.34;;;-2.05;68.90
76137;BME280;68622;53.128;17.966;2023-11-22T06:16:13;102534.91;;;-2.02;68.77
76137;BME280;68622;53.128;17.966;2023-11-22T06:18:39;102549.17;;;-2.00;69.00
76137;BME280;68622;53.128;17.966;2023-11-22T06:21:07;102560.73;;;-1.99;68.98
76137;BME280;68622;53.128;17.966;2023-11-22T06:23:34;102558.19;;;-1.99;68.94
76137;BME280;68622;53.128;17.966;2023-11-22T06:26:00;102562.17;;;-1.87;68.87
76137;BME280;68622;53.128;17.966;2023-11-22T06:28:26;102565.52;;;-1.78;68.54
76137;BME280;68622;53.128;17.966;2023-11-22T06:30:55;102564.29;;;-1.72;68.63
76137;BME280;68622;53.128;17.966;2023-11-22T06:33:21;102564.40;;;-1.66;69.03
76137;BME280;68622;53.128;17.966;2023-11-22T06:35:47;102560.46;;;-1.61;68.75
76137;BME280;68622;53.128;17.966;2023-11-22T06:38:13;102564.14;;;-1.56;69.10
76137;BME280;68622;53.128;17.966;2023-11-22T06:40:39;102562.73;;;-1.50;68.90
76137;BME280;68622;53.128;17.966;2023-11-22T06:43:06;102561.36;;;-1.48;68.91
76137;BME280;68622;53.128;17.966;2023-11-22T06:45:32;102565.95;;;-1.46;68.85
76137;BME280;68622;53.128;17.966;2023-11-22T06:47:58;102573.39;;;-1.41;68.78
76137;BME280;68622;53.128;17.966;2023-11-22T06:50:24;102571.65;;;-1.37;68.83
76137;BME280;68622;53.128;17.966;2023-11-22T06:52:50;102581.49;;;-1.34;69.03
76137;BME280;68622;53.128;17.966;2023-11-22T06:55:18;102594.55;;;-1.29;68.84
76137;BME280;68622;53.128;17.966;2023-11-22T06:57:44;102602.22;;;-1.29;68.85
76137;BME280;68622;53.128;17.966;2023-11-22T07:00:11;102600.86;;;-1.30;68.66
76137;BME280;68622;53.128;17.966;2023-11-22T07:02:39;102601.20;;;-1.29;68.48
76137;BME280;68622;53.128;17.966;2023-11-22T07:05:05;102607.71;;;-1.35;68.22
76137;BME280;68622;53.128;17.966;2023-11-22T07:07:37;102613.02;;;-1.37;68.13
76137;BME280;68622;53.128;17.966;2023-11-22T07:10:04;102616.44;;;-1.41;68.72
76137;BME280;68622;53.128;17.966;2023-11-22T07:12:34;102617.65;;;-1.43;68.15
76137;BME280;68622;53.128;17.966;2023-11-22T07:15:01;102622.61;;;-1.46;68.30
76137;BME280;68622;53.128;17.966;2023-11-22T07:17:28;102629.27;;;-1.49;68.11
76137;BME280;68622;53.128;17.966;2023-11-22T07:19:54;102632.70;;;-1.52;68.31
76137;BME280;68622;53.128;17.966;2023-11-22T07:22:21;102639.02;;;-1.56;68.79
76137;BME280;68622;53.128;17.966;2023-11-22T07:24:49;102646.52;;;-1.59;68.56
76137;BME280;68622;53.128;17.966;2023-11-22T07:27:20;102651.31;;;-1.63;68.61
76137;BME280;68622;53.128;17.966;2023-11-22T07:29:46;102650.64;;;-1.63;68.86
76137;BME280;68622;53.128;17.966;2023-11-22T07:32:12;102650.98;;;-1.62;68.50
76137;BME280;68622;53.128;17.966;2023-11-22T07:34:40;102651.31;;;-1.61;68.34
76137;BME280;68622;53.128;17.966;2023-11-22T07:37:07;102647.89;;;-1.60;68.83
76137;BME280;68622;53.128;17.966;2023-11-22T07:39:34;102646.16;;;-1.57;68.56
76137;BME280;68622;53.128;17.966;2023-11-22T07:42:02;102651.23;;;-1.50;68.60
76137;BME280;68622;53.128;17.966;2023-11-22T07:44:28;102655.45;;;-1.44;68.55
76137;BME280;68622;53.128;17.966;2023-11-22T07:46:59;102666.63;;;-1.39;68.39
76137;BME280;68622;53.128;17.966;2023-11-22T07:49:26;102676.28;;;-1.31;68.50
76137;BME280;68622;53.128;17.966;2023-11-22T07:51:52;102681.52;;;-1.25;68.58
76137;BME280;68622;53.128;17.966;2023-11-22T07:54:19;102682.62;;;-1.14;68.67
76137;BME280;68622;53.128;17.966;2023-11-22T07:56:49;102677.21;;;-0.99;68.45
76137;BME280;68622;53.128;17.966;2023-11-22T07:59:15;102668.27;;;-0.88;67.98
76137;BME280;68622;53.128;17.966;2023-11-22T08:01:45;102667.66;;;-0.79;67.18
76137;BME280;68622;53.128;17.966;2023-11-22T08:04:11;102648.65;;;-0.69;67.29
76137;BME280;68622;53.128;17.966;2023-11-22T08:06:37;102636.13;;;-0.61;67.16
76137;BME280;68622;53.128;17.966;2023-11-22T08:09:04;102629.77;;;-0.57;66.85
76137;BME280;68622;53.128;17.966;2023-11-22T08:11:30;102626.98;;;-0.51;66.65
76137;BME280;68622;53.128;17.966;2023-11-22T08:13:57;102626.16;;;-0.40;66.83
76137;BME280;68622;53.128;17.966;2023-11-22T08:16:28;102623.80;;;-0.29;66.95
76137;BME280;68622;53.128;17.966;2023-11-22T08:18:54;102628.29;;;-0.19;66.34
76137;BME280;68622;53.128;17.966;2023-11-22T08:21:20;102621.02;;;-0.11;66.08
76137;BME280;68622;53.128;17.966;2023-11-22T08:23:46;102620.23;;;-0.03;66.49
76137;BME280;68622;53.128;17.966;2023-11-22T08:26:15;102621.05;;;-0.00;65.87
76137;BME280;68622;53.128;17.966;2023-11-22T08:28:41;102624.06;;;0.03;65.59
76137;BME280;68622;53.128;17.966;2023-11-22T08:31:08;102621.39;;;-0.02;64.98
76137;BME280;68622;53.128;17.966;2023-11-22T08:33:36;102622.18;;;0.03;64.83
76137;BME280;68622;53.128;17.966;2023-11-22T08:36:07;102635.77;;;0.08;65.01
76137;BME280;68622;53.128;17.966;2023-11-22T08:38:35;102645.06;;;0.14;64.91
76137;BME280;68622;53.128;17.966;2023-11-22T08:41:05;102634.54;;;0.23;64.80
76137;BME280;68622;53.128;17.966;2023-11-22T08:43:32;102634.29;;;0.28;64.56
76137;BME280;68622;53.128;17.966;2023-11-22T08:46:00;102635.80;;;0.30;63.88
76137;BME280;68622;53.128;17.966;2023-11-22T08:48:26;102635.92;;;0.33;63.17
76137;BME280;68622;53.128;17.966;2023-11-22T08:50:53;102644.21;;;0.38;63.17
76137;BME280;68622;53.128;17.966;2023-11-22T08:53:21;102647.04;;;0.43;63.67
76137;BME280;68622;53.128;17.966;2023-11-22T08:55:47;102650.84;;;0.51;64.15
76137;BME280;68622;53.128;17.966;2023-11-22T08:58:13;102641.33;;;0.59;64.19
76137;BME280;68622;53.128;17.966;2023-11-22T09:00:40;102633.16;;;0.68;64.06
76137;BME280;68622;53.128;17.966;2023-11-22T09:03:11;102622.27;;;0.76;64.47
76137;BME280;68622;53.128;17.966;2023-11-22T09:05:39;102622.45;;;0.85;63.82
76137;BME280;68622;53.128;17.966;2023-11-22T09:08:05;102628.52;;;0.90;63.79
76137;BME280;68622;53.128;17.966;2023-11-22T09:10:32;102638.26;;;0.90;62.93
76137;BME280;68622;53.128;17.966;2023-11-22T09:12:58;102641.35;;;0.89;62.42
76137;BME280;68622;53.128;17.966;2023-11-22T09:15:25;102638.03;;;0.92;62.31
76137;BME280;68622;53.128;17.966;2023-11-22T09:17:55;102627.59;;;0.94;61.86
76137;BME280;68622;53.128;17.966;2023-11-22T09:20:22;102623.74;;;0.99;61.78
76137;BME280;68622;53.128;17.966;2023-11-22T09:22:51;102623.86;;;1.02;61.78
76137;BME280;68622;53.128;17.966;2023-11-22T09:27:46;102622.67;;;0.92;60.77
76137;BME280;68622;53.128;17.966;2023-11-22T09:30:13;102624.52;;;0.94;60.81
76137;BME280;68622;53.128;17.966;2023-11-22T09:32:59;102624.39;;;1.01;61.19
76137;BME280;68622;53.128;17.966;2023-11-22T09:35:25;102626.85;;;1.07;61.57
76137;BME280;68622;53.128;17.966;2023-11-22T09:37:51;102626.27;;;1.10;60.68
76137;BME280;68622;53.128;17.966;2023-11-22T09:40:18;102628.73;;;1.07;60.23
76137;BME280;68622;53.128;17.966;2023-11-22T09:42:44;102635.51;;;1.10;60.47
76137;BME280;68622;53.128;17.966;2023-11-22T09:45:17;102639.48;;;1.18;60.55
76137;BME280;68622;53.128;17.966;2023-11-22T09:47:47;102634.52;;;1.27;60.71
76137;BME280;68622;53.128;17.966;2023-11-22T09:53:44;102628.35;;;1.36;59.57
76137;BME280;68622;53.128;17.966;2023-11-22T09:56:14;102630.07;;;1.45;59.77
76137;BME280;68622;53.128;17.966;2023-11-22T09:58:41;102624.74;;;1.54;59.95
76137;BME280;68622;53.128;17.966;2023-11-22T10:01:11;102629.98;;;1.58;59.89
76137;BME280;68622;53.128;17.966;2023-11-22T10:03:38;102629.72;;;1.62;59.05
76137;BME280;68622;53.128;17.966;2023-11-22T10:06:04;102627.56;;;1.68;59.01
76137;BME280;68622;53.128;17.966;2023-11-22T10:08:33;102631.15;;;1.76;59.64
76137;BME280;68622;53.128;17.966;2023-11-22T10:10:59;102632.45;;;1.79;58.62
76137;BME280;68622;53.128;17.966;2023-11-22T10:13:26;102630.05;;;1.87;59.19
76137;BME280;68622;53.128;17.966;2023-11-22T10:15:53;102627.31;;;1.87;58.34
76137;BME280;68622;53.128;17.966;2023-11-22T10:18:20;102626.17;;;1.85;58.14
76137;BME280;68622;53.128;17.966;2023-11-22T10:20:48;102626.77;;;1.81;58.39
76137;BME280;68622;53.128;17.966;2023-11-22T10:23:18;102631.94;;;1.79;58.59
76137;BME280;68622;53.128;17.966;2023-11-22T10:25:52;102623.26;;;1.76;58.64
76137;BME280;68622;53.128;17.966;2023-11-22T10:28:20;102616.69;;;1.80;58.40
76137;BME280;68622;53.128;17.966;2023-11-22T10:30:48;102621.39;;;1.84;58.08
76137;BME280;68622;53.128;17.966;2023-11-22T10:33:15;102619.13;;;1.86;57.85
76137;BME280;68622;53.128;17.966;2023-11-22T10:35:43;102615.65;;;1.88;57.96
76137;BME280;68622;53.128;17.966;2023-11-22T10:38:09;102616.27;;;1.99;58.68
76137;BME280;68622;53.128;17.966;2023-11-22T10:40:37;102611.66;;;1.99;57.68
76137;BME280;68622;53.128;17.966;2023-11-22T10:43:04;102602.30;;;2.04;57.18
76137;BME280;68622;53.128;17.966;2023-11-22T10:45:30;102600.35;;;2.07;56.85
76137;BME280;68622;53.128;17.966;2023-11-22T10:47:58;102608.44;;;2.05;56.59
76137;BME280;68622;53.128;17.966;2023-11-22T10:50:23;102608.99;;;2.11;56.11
76137;BME280;68622;53.128;17.966;2023-11-22T10:52:52;102606.13;;;2.24;56.16
76137;BME280;68622;53.128;17.966;2023-11-22T10:55:26;102599.42;;;2.32;56.01
76137;BME280;68622;53.128;17.966;2023-11-22T10:57:55;102599.00;;;2.43;56.85
76137;BME280;68622;53.128;17.966;2023-11-22T11:00:22;102593.70;;;2.42;55.78
76137;BME280;68622;53.128;17.966;2023-11-22T11:02:51;102591.21;;;2.46;56.57
76137;BME280;68622;53.128;17.966;2023-11-22T11:05:26;102586.34;;;2.50;57.46
76137;BME280;68622;53.128;17.966;2023-11-22T11:10:25;102590.19;;;2.53;57.36
76137;BME280;68622;53.128;17.966;2023-11-22T11:12:52;102584.71;;;2.52;56.90
76137;BME280;68622;53.128;17.966;2023-11-22T11:15:20;102577.89;;;2.51;56.34
76137;BME280;68622;53.128;17.966;2023-11-22T11:17:47;102581.84;;;2.51;56.15
76137;BME280;68622;53.128;17.966;2023-11-22T11:20:16;102584.14;;;2.55;57.43
76137;BME280;68622;53.128;17.966;2023-11-22T11:22:47;102585.41;;;2.59;57.29
76137;BME280;68622;53.128;17.966;2023-11-22T11:25:17;102587.02;;;2.49;55.72
76137;BME280;68622;53.128;17.966;2023-11-22T11:27:54;102581.58;;;2.62;56.45
76137;BME280;68622;53.128;17.966;2023-11-22T11:30:48;102588.43;;;2.69;55.63
76137;BME280;68622;53.128;17.966;2023-11-22T11:33:19;102586.03;;;2.81;56.56
76137;BME280;68622;53.128;17.966;2023-11-22T11:35:52;102591.34;;;2.89;55.15
76137;BME280;68622;53.128;17.966;2023-11-22T11:38:30;102595.38;;;3.04;55.95
76137;BME280;68622;53.128;17.966;2023-11-22T11:41:11;102593.58;;;3.14;55.64
76137;BME280;68622;53.128;17.966;2023-11-22T11:43:48;102588.18;;;3.17;54.33
76137;BME280;68622;53.128;17.966;2023-11-22T11:46:17;102583.91;;;3.28;55.36
76137;BME280;68622;53.128;17.966;2023-11-22T11:48:44;102580.46;;;3.35;55.53
76137;BME280;68622;53.128;17.966;2023-11-22T11:51:18;102576.61;;;3.38;54.50
76137;BME280;68622;53.128;17.966;2023-11-22T11:53:44;102570.91;;;3.33;52.90
76137;BME280;68622;53.128;17.966;2023-11-22T11:56:11;102569.70;;;3.09;51.22
76137;BME280;68622;53.128;17.966;2023-11-22T11:58:38;102571.64;;;3.20;53.14
76137;BME280;68622;53.128;17.966;2023-11-22T12:01:05;102571.79;;;3.20;53.49
76137;BME280;68622;53.128;17.966;2023-11-22T12:03:35;102572.42;;;3.16;52.27
76137;BME280;68622;53.128;17.966;2023-11-22T12:06:02;102568.36;;;3.20;52.75
76137;BME280;68622;53.128;17.966;2023-11-22T12:08:27;102564.16;;;3.17;51.95
76137;BME280;68622;53.128;17.966;2023-11-22T12:10:56;102561.20;;;3.25;52.59
76137;BME280;68622;53.128;17.966;2023-11-22T12:13:25;102558.63;;;3.31;53.49
76137;BME280;68622;53.128;17.966;2023-11-22T12:15:52;102551.18;;;3.33;53.77
76137;BME280;68622;53.128;17.966;2023-11-22T12:18:22;102548.02;;;3.36;53.18
76137;BME280;68622;53.128;17.966;2023-11-22T12:20:58;102542.78;;;3.39;53.18
76137;BME280;68622;53.128;17.966;2023-11-22T12:23:26;102536.70;;;3.36;53.03
76137;BME280;68622;53.128;17.966;2023-11-22T12:25:54;102532.09;;;3.23;52.54
76137;BME280;68622;53.128;17.966;2023-11-22T12:28:26;102519.20;;;3.24;52.62
76137;BME280;68622;53.128;17.966;2023-11-22T12:30:53;102517.30;;;3.19;52.68
76137;BME280;68622;53.128;17.966;2023-11-22T12:33:19;102521.58;;;3.07;52.63
76137;BME280;68622;53.128;17.966;2023-11-22T12:35:46;102517.27;;;3.20;52.52
76137;BME280;68622;53.128;17.966;2023-11-22T12:38:13;102507.86;;;3.31;52.76
76137;BME280;68622;53.128;17.966;2023-11-22T12:40:44;102501.98;;;3.45;53.48
76137;BME280;68622;53.128;17.966;2023-11-22T12:43:13;102497.35;;;3.56;54.07
76137;BME280;68622;53.128;17.966;2023-11-22T12:45:39;102500.64;;;3.65;54.29
76137;BME280;68622;53.128;17.966;2023-11-22T12:48:20;102502.61;;;3.69;52.90
76137;BME280;68622;53.128;17.966;2023-11-22T12:50:49;102509.97;;;3.70;52.52
76137;BME280;68622;53.128;17.966;2023-11-22T12:53:16;102507.90;;;3.75;53.65